Klemtu, Canada
Current Conditions -  °F | °C
As of 9:05 AM on Thursday 27 Nov 2014 (Local Time) from CYBD Reporting Station
Light Snow Light Snow  
Wind Chill: 26°   Ceiling: 400
Heat Index: 32°   Visibility: 0.75mi
Dew Point: 32°   Wind: 7mph
Humidity: 100%   Direction: 80°E
Pressure: 29.66"   Gusts: 17mph
Location:  52.58°N, 128.53°W
Report Text: CYBD 271705Z 08006G15KT 030V130 3/4SM -SN VV004 00/M00 A2966 RMK SN8 SLP044
Loading
Personal Weather Stations






























Interactive Weather Map New forecast layout! Learn more

10-Day Weather Forecast

Advertisements
Track Severe Weather on mobile